Terminal Aerodrome Forecast
Issued by NWS

Home | Current Version | Previous Version | Text Only | Print | Product List | Glossary On
Versions: 1 2 3 4 5 6 7 8 9 10 11 12 13 14 15 16
000
FTUS43 KPAH 010520
TAFOWB
TAF
KOWB 010520Z 0106/0206 21013G23KT P6SM VCSH BKN030
      TEMPO 0106/0107 -SHRA
     FM010700 22013G23KT P6SM SCT080
     FM011400 23018G28KT P6SM SCT025 BKN040
     FM020000 24012G22KT P6SM BKN050=

USA.gov is the U.S. government's official web portal to all federal, state and local government web resources and services.